createdAt,value
2017-08-08T00:00:52.577Z,19.71
2017-08-08T00:03:00.824Z,19.71
2017-08-08T00:04:00.786Z,19.67
2017-08-08T00:05:00.774Z,19.67
2017-08-08T00:06:01.074Z,19.69
2017-08-08T00:07:01.057Z,19.63
2017-08-08T00:08:00.767Z,19.61
2017-08-08T00:09:00.416Z,19.49
2017-08-08T00:10:00.706Z,19.53
2017-08-08T00:11:00.996Z,19.58
2017-08-08T00:12:00.993Z,19.52
2017-08-08T00:13:00.968Z,19.49
2017-08-08T00:14:00.657Z,19.52
2017-08-08T00:15:00.934Z,19.51
2017-08-08T00:16:00.616Z,19.53
2017-08-08T00:17:00.611Z,19.53
2017-08-08T00:18:00.592Z,19.49
2017-08-08T00:19:00.576Z,19.52
2017-08-08T00:20:00.560Z,19.53
2017-08-08T00:21:00.846Z,19.56
2017-08-08T00:22:00.516Z,19.52
2017-08-08T00:23:00.507Z,19.55
2017-08-08T00:24:00.799Z,19.56
2017-08-08T00:25:00.819Z,19.52
2017-08-08T00:26:00.817Z,19.52
2017-08-08T00:27:00.756Z,19.55
2017-08-08T00:28:00.758Z,19.4
2017-08-08T00:29:00.259Z,19.49
2017-08-08T00:30:00.716Z,19.53
2017-08-08T00:31:00.091Z,19.56
2017-08-08T00:32:00.687Z,19.53
2017-08-08T00:33:00.378Z,19.56
2017-08-08T00:34:00.350Z,19.53
2017-08-08T00:35:00.649Z,19.37
2017-08-08T00:36:00.340Z,19.43
2017-08-08T00:37:00.636Z,19.4
2017-08-08T00:38:00.609Z,19.44
2017-08-08T00:39:00.289Z,19.41
2017-08-08T00:40:00.375Z,19.41
2017-08-08T00:40:59.989Z,19.38
2017-08-08T00:42:00.229Z,19.4
2017-08-08T00:43:00.214Z,19.46
2017-08-08T00:44:00.207Z,19.41
2017-08-08T00:45:00.489Z,19.44
2017-08-08T00:45:59.869Z,19.3
2017-08-08T00:47:00.689Z,19.3
2017-08-08T00:48:00.159Z,19.23
2017-08-08T00:49:00.425Z,19.26
2017-08-08T00:50:00.179Z,19.22
2017-08-08T00:51:00.089Z,19.15
2017-08-08T00:52:00.096Z,19.22
2017-08-08T00:53:00.389Z,19.16
2017-08-08T00:54:00.058Z,19.21
2017-08-08T00:55:00.051Z,19.22
2017-08-08T00:56:00.034Z,19.22
2017-08-08T00:57:00.001Z,19.22
2017-08-08T00:58:00.306Z,19.33
2017-08-08T00:59:00.279Z,19.28
2017-08-08T01:00:00.389Z,19.23
2017-08-08T01:00:59.961Z,19.26
2017-08-08T01:02:00.250Z,19.08
2017-08-08T01:03:00.227Z,19.07
2017-08-08T01:04:00.321Z,19.07
2017-08-08T01:04:59.901Z,19.07
2017-08-08T01:06:00.179Z,19.06
2017-08-08T01:06:59.850Z,19.07
2017-08-08T01:08:00.139Z,19.07
2017-08-08T01:09:00.130Z,18.99
2017-08-08T01:09:59.809Z,19
2017-08-08T01:11:00.109Z,19.07
2017-08-08T01:12:00.091Z,18.93
2017-08-08T01:12:59.783Z,18.97
2017-08-08T01:14:00.061Z,19.07
2017-08-08T01:15:00.062Z,19.02
2017-08-08T01:16:00.030Z,18.99
2017-08-08T01:17:00.019Z,18.96
2017-08-08T01:18:00.029Z,19.02
2017-08-08T01:18:59.994Z,18.93
2017-08-08T01:19:59.978Z,18.9
2017-08-08T01:20:59.973Z,18.96
2017-08-08T01:21:59.949Z,18.92
2017-08-08T01:22:59.918Z,18.95
2017-08-08T01:23:59.917Z,19.04
2017-08-08T01:24:59.959Z,18.97
2017-08-08T01:25:59.576Z,19.02
2017-08-08T01:26:59.895Z,19.06
2017-08-08T01:27:59.559Z,18.97
2017-08-08T01:28:59.525Z,19.07
2017-08-08T01:29:59.526Z,19.04
2017-08-08T01:30:59.816Z,19.14
2017-08-08T01:31:59.792Z,19.06
2017-08-08T01:32:59.464Z,18.95
2017-08-08T01:33:59.754Z,18.99
2017-08-08T01:34:59.444Z,18.99
2017-08-08T01:35:59.725Z,19.02
2017-08-08T01:36:59.112Z,19.04
2017-08-08T01:37:59.385Z,18.97
2017-08-08T01:38:59.692Z,18.93
2017-08-08T01:39:59.366Z,18.9
2017-08-08T01:40:59.645Z,18.93
2017-08-08T01:41:59.632Z,18.95
2017-08-08T01:42:59.633Z,18.96
2017-08-08T01:43:59.604Z,18.93
2017-08-08T01:44:59.695Z,18.84
2017-08-08T01:45:59.575Z,18.92
2017-08-08T01:46:59.555Z,18.88
2017-08-08T01:47:59.569Z,18.93
2017-08-08T01:48:59.523Z,18.88
2017-08-08T01:49:59.525Z,18.85
2017-08-08T01:50:59.190Z,18.9
2017-08-08T01:51:59.485Z,18.85
2017-08-08T01:52:59.155Z,18.8
2017-08-08T01:53:59.466Z,18.8
2017-08-08T01:54:59.146Z,18.77
2017-08-08T01:55:59.124Z,18.73
2017-08-08T01:56:59.094Z,18.75
2017-08-08T01:57:59.084Z,18.7
2017-08-08T01:58:59.380Z,18.74
2017-08-08T01:59:59.371Z,18.69
2017-08-08T02:00:59.037Z,18.69
2017-08-08T02:01:59.014Z,18.63
2017-08-08T02:02:59.313Z,18.62
2017-08-08T02:03:58.984Z,18.58
2017-08-08T02:04:59.013Z,18.62
2017-08-08T02:05:59.281Z,18.63
2017-08-08T02:06:58.958Z,18.63
2017-08-08T02:07:58.924Z,18.62
2017-08-08T02:08:58.905Z,18.62
2017-08-08T02:09:58.905Z,18.58
2017-08-08T02:10:58.566Z,18.63
2017-08-08T02:11:58.865Z,18.51
2017-08-08T02:12:59.157Z,18.52
2017-08-08T02:13:59.146Z,18.51
2017-08-08T02:14:59.135Z,18.56
2017-08-08T02:15:58.809Z,18.48
2017-08-08T02:16:59.088Z,18.41
2017-08-08T02:17:59.078Z,18.41
2017-08-08T02:18:59.064Z,18.4
2017-08-08T02:19:58.823Z,18.45
2017-08-08T02:20:58.730Z,18.41
2017-08-08T02:21:59.015Z,18.51
2017-08-08T02:22:58.686Z,18.5
2017-08-08T02:23:58.985Z,18.44
2017-08-08T02:24:58.357Z,18.5
2017-08-08T02:25:58.954Z,18.45
2017-08-08T02:26:58.945Z,18.47
2017-08-08T02:27:58.623Z,18.45
2017-08-08T02:28:58.915Z,18.47
2017-08-08T02:29:58.892Z,18.45
2017-08-08T02:30:58.881Z,18.38
2017-08-08T02:31:58.866Z,18.41
2017-08-08T02:32:58.541Z,18.41
2017-08-08T02:33:58.834Z,18.33
2017-08-08T02:34:58.812Z,18.42
2017-08-08T02:35:58.262Z,18.47
2017-08-08T02:36:58.560Z,18.52
2017-08-08T02:37:58.244Z,18.38
2017-08-08T02:38:58.451Z,18.45
2017-08-08T02:39:58.427Z,18.35
2017-08-08T02:40:58.727Z,18.33
2017-08-08T02:41:58.708Z,18.4
2017-08-08T02:42:58.391Z,18.32
2017-08-08T02:43:58.682Z,18.32
2017-08-08T02:44:58.357Z,18.38
2017-08-08T02:45:58.323Z,18.42
2017-08-08T02:46:58.626Z,18.42
2017-08-08T02:47:58.611Z,18.42
2017-08-08T02:48:58.345Z,18.32
2017-08-08T02:49:58.584Z,18.4
2017-08-08T02:50:58.262Z,18.35
2017-08-08T02:51:58.254Z,18.38
2017-08-08T02:52:58.526Z,18.35
2017-08-08T02:53:58.214Z,18.35
2017-08-08T02:54:58.496Z,18.33
2017-08-08T02:55:58.483Z,18.33
2017-08-08T02:56:58.213Z,18.4
2017-08-08T02:57:58.150Z,18.35
2017-08-08T02:58:58.179Z,18.35
2017-08-08T02:59:58.421Z,18.32
2017-08-08T03:00:58.174Z,18.38
2017-08-08T03:01:58.383Z,18.38
2017-08-08T03:02:58.374Z,18.32
2017-08-08T03:03:58.358Z,18.37
2017-08-08T03:04:58.080Z,18.29
2017-08-08T03:05:58.014Z,18.33
2017-08-08T03:06:57.717Z,18.3
2017-08-08T03:07:57.994Z,18.27
2017-08-08T03:08:58.271Z,18.25
2017-08-08T03:09:57.955Z,18.2
2017-08-08T03:10:57.945Z,18.26
2017-08-08T03:11:57.931Z,18.26
2017-08-08T03:12:57.913Z,18.2
2017-08-08T03:13:58.203Z,18.26
2017-08-08T03:14:57.883Z,18.26
2017-08-08T03:15:57.572Z,18.11
2017-08-08T03:16:57.845Z,18.26
2017-08-08T03:17:58.144Z,18.2
2017-08-08T03:18:58.143Z,18.14
2017-08-08T03:19:57.803Z,18.22
2017-08-08T03:20:57.783Z,18.19
2017-08-08T03:21:57.788Z,18.12
2017-08-08T03:22:58.061Z,18.08
2017-08-08T03:23:57.740Z,18.05
2017-08-08T03:24:57.725Z,18.15
2017-08-08T03:25:58.016Z,18.05
2017-08-08T03:26:57.993Z,18.02
2017-08-08T03:27:57.676Z,17.96
2017-08-08T03:28:57.965Z,18.04
2017-08-08T03:29:57.651Z,18
2017-08-08T03:30:57.626Z,17.9
2017-08-08T03:31:57.614Z,17.95
2017-08-08T03:32:57.606Z,17.96
2017-08-08T03:33:57.574Z,17.93
2017-08-08T03:34:57.567Z,17.85
2017-08-08T03:35:57.553Z,17.96
2017-08-08T03:36:57.832Z,17.96
2017-08-08T03:37:57.864Z,17.96
2017-08-08T03:38:57.504Z,17.95
2017-08-08T03:39:57.573Z,17.93
2017-08-08T03:40:57.769Z,17.92
2017-08-08T03:41:57.826Z,18
2017-08-08T03:42:57.747Z,17.95
2017-08-08T03:43:57.534Z,18
2017-08-08T03:44:57.724Z,17.98
2017-08-08T03:45:57.715Z,17.93
2017-08-08T03:46:57.687Z,17.98
2017-08-08T03:47:57.770Z,18
2017-08-08T03:48:57.664Z,17.96
2017-08-08T03:49:57.363Z,17.95
2017-08-08T03:50:57.616Z,17.95
2017-08-08T03:51:57.715Z,17.93
2017-08-08T03:52:57.602Z,17.98
2017-08-08T03:53:57.583Z,17.93
2017-08-08T03:54:57.553Z,18.02
2017-08-08T03:55:57.584Z,17.93
2017-08-08T03:56:57.523Z,18.02
2017-08-08T03:57:57.512Z,18.02
2017-08-08T03:58:57.183Z,18
2017-08-08T03:59:57.463Z,18.11
2017-08-08T04:00:57.150Z,18.12
2017-08-08T04:01:57.153Z,18.07
2017-08-08T04:02:57.435Z,18.1
2017-08-08T04:03:57.401Z,18.11
2017-08-08T04:04:57.390Z,18.07
2017-08-08T04:05:56.761Z,18
2017-08-08T04:06:57.062Z,18.02
2017-08-08T04:07:56.781Z,18.07
2017-08-08T04:08:57.342Z,18.04
2017-08-08T04:09:57.003Z,18.04
2017-08-08T04:10:57.313Z,18.08
2017-08-08T04:11:57.030Z,18.18
2017-08-08T04:12:57.284Z,18.18
2017-08-08T04:13:56.951Z,18.1
2017-08-08T04:14:56.933Z,18.15
2017-08-08T04:15:57.212Z,18.19
2017-08-08T04:16:57.282Z,18.18
2017-08-08T04:17:57.193Z,18.19
2017-08-08T04:18:57.234Z,18.25
2017-08-08T04:19:57.162Z,18.23
2017-08-08T04:20:57.152Z,18.22
2017-08-08T04:21:57.132Z,18.22
2017-08-08T04:22:56.802Z,18.22
2017-08-08T04:23:57.082Z,18.25
2017-08-08T04:24:57.103Z,18.29
2017-08-08T04:25:56.752Z,18.3
2017-08-08T04:26:57.052Z,18.4
2017-08-08T04:27:57.072Z,18.3
2017-08-08T04:28:56.702Z,18.29
2017-08-08T04:29:56.694Z,18.27
2017-08-08T04:30:56.673Z,18.33
2017-08-08T04:31:56.364Z,18.3
2017-08-08T04:32:56.965Z,18.38
2017-08-08T04:33:56.317Z,18.44
2017-08-08T04:34:56.641Z,18.42
2017-08-08T04:35:56.902Z,18.32
2017-08-08T04:36:56.892Z,18.44
2017-08-08T04:37:56.261Z,18.38
2017-08-08T04:38:56.552Z,18.41
2017-08-08T04:39:56.853Z,18.4
2017-08-08T04:40:56.313Z,18.4
2017-08-08T04:41:56.503Z,18.47
2017-08-08T04:42:56.792Z,18.35
2017-08-08T04:43:56.471Z,18.37
2017-08-08T04:44:56.484Z,18.35
2017-08-08T04:45:56.757Z,18.25
2017-08-08T04:46:56.741Z,18.27
2017-08-08T04:47:56.421Z,18.26
2017-08-08T04:48:56.402Z,18.37
2017-08-08T04:49:56.385Z,18.33
2017-08-08T04:50:56.360Z,18.35
2017-08-08T04:51:56.346Z,18.48
2017-08-08T04:52:56.330Z,18.51
2017-08-08T04:53:56.316Z,18.38
2017-08-08T04:54:56.013Z,18.51
2017-08-08T04:55:56.592Z,18.41
2017-08-08T04:56:56.263Z,18.42
2017-08-08T04:57:56.573Z,18.5
2017-08-08T04:58:56.542Z,18.58
2017-08-08T04:59:56.519Z,18.59
2017-08-08T05:00:56.511Z,18.55
2017-08-08T05:01:56.514Z,18.56
2017-08-08T05:02:56.491Z,18.66
2017-08-08T05:03:56.159Z,18.51
2017-08-08T05:04:56.458Z,18.51
2017-08-08T05:05:56.472Z,18.45
2017-08-08T05:06:56.421Z,18.47
2017-08-08T05:07:56.092Z,18.44
2017-08-08T05:08:56.391Z,18.41
2017-08-08T05:09:56.374Z,18.41
2017-08-08T05:10:56.070Z,18.56
2017-08-08T05:11:56.043Z,18.45
2017-08-08T05:12:56.319Z,18.47
2017-08-08T05:13:56.298Z,18.56
2017-08-08T05:14:56.001Z,18.6
2017-08-08T05:15:56.012Z,18.58
2017-08-08T05:16:56.264Z,18.66
2017-08-08T05:17:55.941Z,18.66
2017-08-08T05:18:55.942Z,18.63
2017-08-08T05:19:56.222Z,18.69
2017-08-08T05:20:55.891Z,18.7
2017-08-08T05:21:56.191Z,18.7
2017-08-08T05:22:55.869Z,18.73
2017-08-08T05:23:56.160Z,18.63
2017-08-08T05:24:55.840Z,18.6
2017-08-08T05:25:55.832Z,18.63
2017-08-08T05:26:55.803Z,18.6
2017-08-08T05:27:55.481Z,18.6
2017-08-08T05:28:56.081Z,18.65
2017-08-08T05:29:55.774Z,18.67
2017-08-08T05:30:55.751Z,18.75
2017-08-08T05:31:55.730Z,18.69
2017-08-08T05:32:56.079Z,18.77
2017-08-08T05:33:56.003Z,18.78
2017-08-08T05:34:56.112Z,18.75
2017-08-08T05:35:55.669Z,18.69
2017-08-08T05:36:56.042Z,18.67
2017-08-08T05:37:55.944Z,18.73
2017-08-08T05:38:55.923Z,18.67
2017-08-08T05:39:55.918Z,18.62
2017-08-08T05:40:55.303Z,18.66
2017-08-08T05:41:55.593Z,18.55
2017-08-08T05:42:55.290Z,18.55
2017-08-08T05:43:55.552Z,18.65
2017-08-08T05:44:55.842Z,18.67
2017-08-08T05:45:55.823Z,18.73
2017-08-08T05:46:55.899Z,18.63
2017-08-08T05:47:55.512Z,18.69
2017-08-08T05:48:55.792Z,18.73
2017-08-08T05:49:55.751Z,18.66
2017-08-08T05:50:55.491Z,18.7
2017-08-08T05:51:55.124Z,18.78
2017-08-08T05:52:55.447Z,18.7
2017-08-08T05:53:55.710Z,18.77
2017-08-08T05:54:55.732Z,18.78
2017-08-08T05:55:55.711Z,18.75
2017-08-08T05:56:55.493Z,18.84
2017-08-08T05:57:55.672Z,18.73
2017-08-08T05:58:55.722Z,18.62
2017-08-08T05:59:55.302Z,18.63
2017-08-08T06:00:55.316Z,18.66
2017-08-08T06:01:55.313Z,18.75
2017-08-08T06:02:55.602Z,18.81
2017-08-08T06:03:55.348Z,18.8
2017-08-08T06:04:55.241Z,18.8
2017-08-08T06:05:55.512Z,18.84
2017-08-08T06:06:55.512Z,18.84
2017-08-08T06:07:55.190Z,18.9
2017-08-08T06:08:55.183Z,18.93
2017-08-08T06:09:55.228Z,18.9
2017-08-08T06:10:55.184Z,18.82
2017-08-08T06:11:55.520Z,18.92
2017-08-08T06:12:55.413Z,18.93
2017-08-08T06:13:55.482Z,18.97
2017-08-08T06:14:55.392Z,18.99
2017-08-08T06:15:55.460Z,18.9
2017-08-08T06:16:55.150Z,18.95
2017-08-08T06:17:55.338Z,18.95
2017-08-08T06:18:55.516Z,18.97
2017-08-08T06:19:55.303Z,19.06
2017-08-08T06:20:55.283Z,19.02
2017-08-08T06:21:55.283Z,19.08
2017-08-08T06:22:55.295Z,19.08
2017-08-08T06:23:54.952Z,19.11
2017-08-08T06:24:55.229Z,19.19
2017-08-08T06:25:55.218Z,19.23
2017-08-08T06:26:55.223Z,19.3
2017-08-08T06:27:55.182Z,19.41
2017-08-08T06:28:55.183Z,19.48
2017-08-08T06:29:55.184Z,19.56
2017-08-08T06:30:55.153Z,19.55
2017-08-08T06:31:54.834Z,19.63
2017-08-08T06:32:55.143Z,19.73
2017-08-08T06:33:54.793Z,19.67
2017-08-08T06:34:55.081Z,19.73
2017-08-08T06:35:55.071Z,19.73
2017-08-08T06:36:54.754Z,19.83
2017-08-08T06:37:55.059Z,19.95
2017-08-08T06:38:55.042Z,19.93
2017-08-08T06:39:54.743Z,20.03
2017-08-08T06:40:54.694Z,20.17
2017-08-08T06:41:54.984Z,20.16
2017-08-08T06:42:54.963Z,20.2
2017-08-08T06:43:54.663Z,20.17
2017-08-08T06:44:54.943Z,20.2
2017-08-08T06:45:54.627Z,20.26
2017-08-08T06:46:54.923Z,20.4
2017-08-08T06:47:54.902Z,20.4
2017-08-08T06:48:54.582Z,20.52
2017-08-08T06:49:54.564Z,20.48
2017-08-08T06:50:54.562Z,20.38
2017-08-08T06:51:54.855Z,20.4
2017-08-08T06:52:54.853Z,20.47
2017-08-08T06:53:54.513Z,20.48
2017-08-08T06:54:54.793Z,20.41
2017-08-08T06:55:54.473Z,20.48
2017-08-08T06:56:54.764Z,20.48
2017-08-08T06:57:54.453Z,20.54
2017-08-08T06:58:54.793Z,20.52
2017-08-08T06:59:54.740Z,20.63
2017-08-08T07:00:54.724Z,20.66
2017-08-08T07:01:54.415Z,20.62
2017-08-08T07:02:54.687Z,20.73
2017-08-08T07:03:54.381Z,20.78
2017-08-08T07:04:54.664Z,20.82
2017-08-08T07:05:54.354Z,20.95
2017-08-08T07:06:54.017Z,21
2017-08-08T07:07:54.633Z,21.06
2017-08-08T07:08:54.603Z,21.1
2017-08-08T07:09:54.288Z,21.22
2017-08-08T07:10:54.306Z,21.26
2017-08-08T07:11:54.573Z,21.24
2017-08-08T07:12:54.242Z,21.25
2017-08-08T07:13:54.546Z,21.26
2017-08-08T07:14:54.543Z,21.33
2017-08-08T07:15:54.214Z,21.31
2017-08-08T07:16:54.194Z,21.37
2017-08-08T07:17:54.194Z,21.41
2017-08-08T07:18:53.875Z,21.5
2017-08-08T07:19:54.685Z,21.46
2017-08-08T07:20:54.454Z,21.52
2017-08-08T07:21:54.160Z,21.61
2017-08-08T07:22:54.467Z,21.62
2017-08-08T07:23:54.418Z,21.76
2017-08-08T07:24:54.106Z,21.86
2017-08-08T07:25:54.404Z,21.84
2017-08-08T07:26:54.381Z,21.81
2017-08-08T07:27:54.396Z,21.86
2017-08-08T07:28:54.365Z,21.77
2017-08-08T07:29:54.045Z,21.73
2017-08-08T07:30:54.024Z,21.59
2017-08-08T07:31:54.023Z,21.64
2017-08-08T07:32:53.984Z,21.77
2017-08-08T07:33:53.984Z,21.93
2017-08-08T07:34:53.975Z,22.15
2017-08-08T07:35:54.265Z,22.33
2017-08-08T07:36:54.254Z,22.29
2017-08-08T07:37:54.303Z,22.36
2017-08-08T07:38:54.248Z,22.45
2017-08-08T07:39:54.231Z,22.33
2017-08-08T07:40:54.199Z,22.48
2017-08-08T07:41:53.885Z,22.65
2017-08-08T07:42:54.202Z,22.62
2017-08-08T07:43:54.166Z,22.67
2017-08-08T07:44:54.161Z,22.67
2017-08-08T07:45:53.845Z,22.73
2017-08-08T07:46:53.834Z,22.55
2017-08-08T07:47:54.129Z,22.45
2017-08-08T07:48:54.115Z,22.45
2017-08-08T07:49:54.094Z,22.42
2017-08-08T07:50:54.087Z,22.37
2017-08-08T07:51:54.105Z,22.37
2017-08-08T07:52:54.073Z,22.42
2017-08-08T07:53:54.043Z,22.33
2017-08-08T07:54:53.437Z,22.08
2017-08-08T07:55:54.024Z,21.86
2017-08-08T07:56:54.039Z,21.71
2017-08-08T07:57:54.008Z,21.62
2017-08-08T07:58:53.987Z,21.68
2017-08-08T07:59:53.674Z,21.79
2017-08-08T08:00:53.654Z,21.97
2017-08-08T08:01:53.957Z,21.97
2017-08-08T08:02:53.664Z,21.9
2017-08-08T08:03:53.925Z,21.43
2017-08-08T08:04:53.916Z,21.29
2017-08-08T08:05:53.914Z,21.22
2017-08-08T08:06:53.890Z,21.43
2017-08-08T08:07:53.894Z,21.47
2017-08-08T08:08:53.874Z,21.55
2017-08-08T08:09:53.851Z,21.61
2017-08-08T08:10:53.610Z,21.26
2017-08-08T08:11:53.820Z,20.99
2017-08-08T08:12:53.810Z,20.89
2017-08-08T08:13:53.816Z,20.72
2017-08-08T08:14:53.795Z,20.74
2017-08-08T08:15:53.164Z,20.85
2017-08-08T08:16:53.773Z,20.95
2017-08-08T08:17:53.758Z,21.04
2017-08-08T08:18:53.758Z,21.34
2017-08-08T08:19:53.422Z,21.37
2017-08-08T08:20:53.598Z,21.43
2017-08-08T08:21:53.399Z,21.41
2017-08-08T08:22:53.704Z,21.39
2017-08-08T08:23:53.691Z,21.44
2017-08-08T08:24:53.672Z,21.7
2017-08-08T08:25:53.652Z,21.83
2017-08-08T08:26:53.346Z,22.03
2017-08-08T08:27:53.025Z,22.1
2017-08-08T08:28:53.314Z,22.22
2017-08-08T08:29:53.665Z,22.36
2017-08-08T08:30:53.615Z,22.37
2017-08-08T08:31:53.274Z,22.43
2017-08-08T08:32:53.563Z,22.51
2017-08-08T08:33:53.555Z,22.58
2017-08-08T08:34:53.253Z,22.5
2017-08-08T08:35:53.235Z,22.58
2017-08-08T08:36:53.524Z,22.55
2017-08-08T08:37:53.604Z,22.57
2017-08-08T08:38:53.513Z,22.73
2017-08-08T08:39:53.184Z,22.7
2017-08-08T08:40:53.584Z,22.77
2017-08-08T08:41:53.205Z,22.77
2017-08-08T08:42:52.833Z,22.82
2017-08-08T08:43:53.144Z,22.92
2017-08-08T08:44:53.487Z,22.94
2017-08-08T08:45:53.103Z,22.82
2017-08-08T08:46:53.437Z,22.82
2017-08-08T08:47:53.489Z,22.79
2017-08-08T08:48:52.777Z,22.66
2017-08-08T08:49:53.074Z,22.77
2017-08-08T08:50:53.046Z,22.8
2017-08-08T08:51:53.394Z,22.79
2017-08-08T08:52:53.027Z,22.65
2017-08-08T08:53:53.321Z,22.77
2017-08-08T08:54:53.315Z,22.74
2017-08-08T08:55:52.984Z,22.77
2017-08-08T08:56:52.675Z,22.84
2017-08-08T08:57:52.984Z,22.88
2017-08-08T08:58:53.264Z,22.94
2017-08-08T08:59:52.956Z,23.02
2017-08-08T09:00:52.932Z,22.92
2017-08-08T09:01:53.223Z,23.04
2017-08-08T09:02:52.923Z,23.04
2017-08-08T09:03:53.044Z,23.09
2017-08-08T09:04:52.890Z,23.13
2017-08-08T09:05:53.183Z,23.17
2017-08-08T09:06:52.894Z,23.21
2017-08-08T09:07:53.152Z,23.13
2017-08-08T09:08:53.151Z,23.27
2017-08-08T09:09:53.134Z,23.21
2017-08-08T09:10:52.830Z,23.25
2017-08-08T09:11:53.124Z,23.32
2017-08-08T09:12:52.815Z,23.27
2017-08-08T09:13:52.784Z,23.25
2017-08-08T09:14:53.074Z,23.32
2017-08-08T09:15:52.833Z,23.21
2017-08-08T09:16:52.756Z,23.25
2017-08-08T09:17:53.034Z,23.22
2017-08-08T09:18:53.041Z,23.35
2017-08-08T09:19:53.013Z,23.38
2017-08-08T09:20:53.016Z,23.36
2017-08-08T09:21:53.024Z,23.38
2017-08-08T09:22:52.986Z,23.44
2017-08-08T09:23:52.964Z,23.55
2017-08-08T09:24:52.981Z,23.67
2017-08-08T09:25:52.965Z,23.67
2017-08-08T09:26:52.953Z,23.66
2017-08-08T09:27:52.924Z,23.78
2017-08-08T09:28:53.044Z,23.73
2017-08-08T09:29:52.918Z,23.81
2017-08-08T09:30:52.908Z,23.73
2017-08-08T09:31:52.994Z,23.77
2017-08-08T09:32:52.884Z,23.84
2017-08-08T09:33:52.553Z,23.78
2017-08-08T09:34:52.854Z,23.8
2017-08-08T09:35:52.552Z,23.82
2017-08-08T09:36:52.854Z,23.87
2017-08-08T09:37:52.849Z,23.96
2017-08-08T09:38:52.834Z,23.96
2017-08-08T09:39:52.854Z,23.99
2017-08-08T09:40:52.784Z,24.1
2017-08-08T09:41:52.465Z,24.12
2017-08-08T09:42:52.767Z,24.09
2017-08-08T09:43:52.776Z,24.14
2017-08-08T09:44:52.758Z,24.22
2017-08-08T09:45:52.736Z,24.37
2017-08-08T09:46:52.736Z,24.33
2017-08-08T09:47:52.774Z,24.39
2017-08-08T09:48:52.695Z,24.27
2017-08-08T09:49:52.402Z,24.34
2017-08-08T09:50:52.384Z,24.24
2017-08-08T09:51:52.668Z,24.18
2017-08-08T09:52:52.691Z,24.24
2017-08-08T09:53:52.652Z,24.25
2017-08-08T09:54:52.643Z,24.25
2017-08-08T09:55:52.308Z,24.14
2017-08-08T09:56:52.626Z,24.21
2017-08-08T09:57:52.605Z,24.24
2017-08-08T09:58:52.293Z,24.28
2017-08-08T09:59:52.582Z,24.21
2017-08-08T10:00:51.962Z,24.24
2017-08-08T10:01:52.566Z,23.99
2017-08-08T10:02:52.263Z,23.77
2017-08-08T10:03:52.534Z,23.75
2017-08-08T10:04:51.912Z,23.77
2017-08-08T10:05:52.542Z,23.63
2017-08-08T10:06:52.204Z,23.55
2017-08-08T10:07:52.514Z,23.57
2017-08-08T10:08:52.492Z,23.45
2017-08-08T10:09:52.162Z,23.4
2017-08-08T10:10:51.853Z,23.48
2017-08-08T10:11:52.474Z,23.54
2017-08-08T10:12:52.779Z,23.55
2017-08-08T10:13:52.122Z,23.62
2017-08-08T10:14:52.437Z,23.62
2017-08-08T10:15:52.420Z,23.59
2017-08-08T10:16:52.392Z,23.51
2017-08-08T10:17:52.389Z,23.47
2017-08-08T10:18:52.372Z,23.4
2017-08-08T10:19:52.378Z,23.4
2017-08-08T10:20:52.072Z,23.32
2017-08-08T10:21:52.342Z,23.28
2017-08-08T10:22:52.332Z,23.27
2017-08-08T10:23:52.322Z,23.22
2017-08-08T10:24:52.401Z,23.25
2017-08-08T10:25:52.286Z,23.24
2017-08-08T10:26:52.292Z,23.27
2017-08-08T10:27:51.973Z,23.17
2017-08-08T10:28:52.263Z,23.28
2017-08-08T10:29:51.951Z,23.27
2017-08-08T10:30:52.280Z,23.35
2017-08-08T10:31:51.923Z,23.4
2017-08-08T10:32:51.620Z,23.41
2017-08-08T10:33:52.191Z,23.47
2017-08-08T10:34:52.264Z,23.44
2017-08-08T10:35:51.880Z,23.4
2017-08-08T10:36:51.907Z,23.4
2017-08-08T10:37:52.181Z,23.35
2017-08-08T10:38:51.837Z,23.44
2017-08-08T10:39:51.830Z,23.45
2017-08-08T10:40:52.222Z,23.48
2017-08-08T10:41:51.793Z,23.48
2017-08-08T10:42:52.158Z,23.38
2017-08-08T10:43:51.780Z,23.36
2017-08-08T10:44:52.125Z,23.4
2017-08-08T10:45:51.771Z,23.33
2017-08-08T10:46:51.741Z,23.35
2017-08-08T10:47:52.079Z,23.36
2017-08-08T10:48:51.771Z,23.32
2017-08-08T10:49:51.723Z,23.25
2017-08-08T10:50:52.050Z,23.04
2017-08-08T10:51:51.681Z,23.03
2017-08-08T10:52:51.979Z,23.1
2017-08-08T10:53:51.661Z,23.13
2017-08-08T10:54:51.662Z,23.03
2017-08-08T10:55:51.962Z,23.04
2017-08-08T10:56:51.923Z,23.06
2017-08-08T10:57:51.629Z,22.99
2017-08-08T10:58:51.914Z,23.04
2017-08-08T10:59:51.608Z,23.19
2017-08-08T11:00:51.594Z,23.29
2017-08-08T11:01:51.570Z,23.36
2017-08-08T11:02:51.861Z,23.25
2017-08-08T11:03:51.871Z,23.35
2017-08-08T11:04:51.839Z,23.32
2017-08-08T11:05:51.831Z,23.27
2017-08-08T11:06:51.822Z,23.36
2017-08-08T11:07:51.827Z,23.27
2017-08-08T11:08:51.204Z,23.16
2017-08-08T11:09:51.786Z,23.36
2017-08-08T11:10:51.160Z,23.25
2017-08-08T11:11:51.772Z,23.16
2017-08-08T11:12:51.760Z,23.25
2017-08-08T11:13:51.432Z,23.17
2017-08-08T11:14:51.408Z,23.19
2017-08-08T11:15:51.723Z,23.25
2017-08-08T11:16:51.402Z,23.29
2017-08-08T11:17:51.690Z,23.29
2017-08-08T11:18:51.692Z,23.24
2017-08-08T11:19:51.360Z,23.29
2017-08-08T11:20:51.664Z,23.27
2017-08-08T11:21:51.364Z,23.25
2017-08-08T11:22:51.424Z,23.22
2017-08-08T11:23:51.622Z,23.21
2017-08-08T11:24:51.605Z,23.28
2017-08-08T11:25:51.597Z,23.06
2017-08-08T11:26:51.600Z,23.02
2017-08-08T11:27:51.280Z,22.97
2017-08-08T11:28:51.571Z,22.98
2017-08-08T11:29:51.229Z,23.12
2017-08-08T11:30:51.543Z,23.02
2017-08-08T11:31:51.541Z,23.14
2017-08-08T11:32:51.520Z,23.22
2017-08-08T11:33:51.682Z,23.21
2017-08-08T11:34:51.191Z,23.35
2017-08-08T11:35:51.483Z,23.25
2017-08-08T11:36:51.480Z,23.32
2017-08-08T11:37:51.456Z,23.28
2017-08-08T11:38:50.840Z,23.28
2017-08-08T11:39:51.432Z,23.17
2017-08-08T11:40:51.424Z,23.33
2017-08-08T11:41:51.400Z,23.4
2017-08-08T11:42:51.082Z,23.42
2017-08-08T11:43:51.373Z,23.48
2017-08-08T11:44:51.486Z,23.52
2017-08-08T11:45:51.059Z,23.45
2017-08-08T11:46:51.409Z,23.51
2017-08-08T11:47:51.351Z,23.48
2017-08-08T11:48:50.713Z,23.41
2017-08-08T11:49:51.321Z,23.38
2017-08-08T11:50:50.693Z,23.41
2017-08-08T11:51:50.978Z,23.24
2017-08-08T11:52:50.971Z,23.25
2017-08-08T11:53:51.269Z,23.25
2017-08-08T11:54:50.951Z,23.16
2017-08-08T11:55:50.961Z,23.1
2017-08-08T11:56:50.927Z,22.98
2017-08-08T11:57:51.219Z,22.95
2017-08-08T11:58:51.198Z,23.07
2017-08-08T11:59:51.213Z,23.04
2017-08-08T12:00:51.194Z,23.13
2017-08-08T12:01:51.211Z,23.1
2017-08-08T12:02:51.150Z,22.97
2017-08-08T12:03:51.149Z,23.04
2017-08-08T12:04:50.827Z,23.07
2017-08-08T12:05:50.809Z,23.25
2017-08-08T12:06:50.497Z,23.24
2017-08-08T12:07:50.789Z,23.17
2017-08-08T12:08:51.097Z,22.89
2017-08-08T12:09:51.080Z,22.79
2017-08-08T12:10:51.059Z,22.77
2017-08-08T12:11:51.061Z,22.8
2017-08-08T12:12:50.731Z,22.74
2017-08-08T12:13:50.731Z,22.52
2017-08-08T12:14:50.711Z,22.61
2017-08-08T12:15:50.710Z,22.65
2017-08-08T12:16:51.003Z,22.55
2017-08-08T12:17:50.678Z,22.43
2017-08-08T12:18:50.971Z,22.11
2017-08-08T12:19:50.639Z,22.11
2017-08-08T12:20:50.630Z,22.08
2017-08-08T12:21:50.625Z,22.12
2017-08-08T12:22:50.609Z,22.15
2017-08-08T12:23:50.619Z,22.08
2017-08-08T12:24:50.598Z,22.12
2017-08-08T12:25:50.868Z,22.06
2017-08-08T12:26:50.549Z,22.11
2017-08-08T12:27:50.860Z,22.12
2017-08-08T12:28:50.555Z,22.08
2017-08-08T12:29:50.820Z,22.11
2017-08-08T12:30:50.531Z,22.15
2017-08-08T12:31:50.958Z,22.15
2017-08-08T12:32:50.496Z,22.2
2017-08-08T12:33:50.461Z,22.43
2017-08-08T12:34:50.760Z,22.1
2017-08-08T12:35:50.460Z,22.14
2017-08-08T12:36:50.442Z,22.03
2017-08-08T12:37:50.415Z,22.12
2017-08-08T12:38:50.817Z,22.11
2017-08-08T12:39:50.702Z,22.1
2017-08-08T12:40:50.739Z,22.17
2017-08-08T12:41:50.683Z,22.17
2017-08-08T12:42:50.659Z,22.11
2017-08-08T12:43:50.664Z,22.29
2017-08-08T12:44:50.638Z,22.32
2017-08-08T12:45:50.633Z,22.32
2017-08-08T12:46:50.624Z,22.37
2017-08-08T12:47:50.591Z,22.3
2017-08-08T12:48:50.602Z,22.27
2017-08-08T12:49:50.602Z,22.11
2017-08-08T12:50:50.573Z,22.11
2017-08-08T12:51:50.563Z,22.18
2017-08-08T12:52:50.590Z,22.21
2017-08-08T12:53:50.527Z,22.1
2017-08-08T12:54:50.557Z,22.11
2017-08-08T12:55:50.493Z,22.06
2017-08-08T12:56:50.504Z,22.11